Terminal Aerodrome Forecast
Issued by NWS

Home | Current Version | Previous Version | Text Only | Print | Product List | Glossary On
Versions: 1 2 3 4 5 6 7 8 9 10 11 12 13 14 15 16 17 18 19 20 21 22
698
FTUS45 KFGZ 200531
TAFPGA
TAF
KPGA 200531Z 2006/2106 07005KT P6SM FEW080 SCT100
      TEMPO 2018/2021 P6SM -SHRA BKN250
     FM202100 06008KT P6SM OVC100
      TEMPO 2021/2024 P6SM -SHRA BKN050 OVC100
     FM210000 07005KT P6SM -SHRA OVC050=

USA.gov is the U.S. government's official web portal to all federal, state and local government web resources and services.